Goch-Asperden Airport

EDLG · North Rhine-Westphalia, 德国

罗盘
风向 的 风向 280° Goch-Asperden Airport 10/28
风: 5 kt, 2 beaufort

5 kt

改变
0 1.000 2.000 3.000 4.000 5.000
BKN 3.600 ft
METAR EDLV 061350Z 28005KT 9999 BKN036 07/03 Q1019

METAR Goch-Asperden Airport - EDLG

Goch-Asperden Airport是,德国中的小机场。 该机场有一条跑道: 10/28. 该领域的国际民航组织标志是EDLG.

这份报告是针对2022年12月6日 14:50, 当地时间在Weeze Airport进行的。

机场观察

风向为280°,速度为5 kt。

可见度为10 km 或者更多。

有碎云在3.600 ft的高度。 破损或更高的上限为3.600 ft。

温度为7 °C,阵风为4 °C。 露点为3 °C,相对湿度为76%。 海平面上的气压为1019 hPa (QNH)。

白天

今天,太阳从08:26升起,在16:26降落。 这适用于Goch-Asperden Airport,世界夏令时可能有所不同。 当地时间与世界标准时间之间的时差为+1 小时。 当前,没有夏令时有效。

公司介绍

我们没有关于这个机场的公司信息。

体会

到Vliegles.nl去找飞行课程,跳伞和其他飞行体验。 浏览页面,了解Goch-Asperden Airport附近所有可用的活动。 你也可以使用搜索功能来寻找你所在地附近的特定飞行课程、跳伞或其他飞行体验。

跑道

Id 标题 侧风 逆风 侧风 %
10/28 099°-279° 5 kt 2 %

逆风成分最大的方向会被突出显示,并用于横风计算。 这并不一定意味着这个方向在使用。

乌云

3.600 ft BKN 碎云

温度 & 天气

温度 7 °C
露点 3 °C
相对湿度 76%
风寒 4 °C
Kp-index 1 (0-9)

白天

日出
08:25
中午
12:26
日落
16:27 (1:14)

小工具

你想在你的网站上有一个关于Goch-Asperden Airport的当前航空天气(METAR)的小部件吗?

显示HTML代码

我们和第三方通过cookies跟踪您在我们网站上的互联网行为。如果你继续,我们认为你同意我们的饼干政策